sensor_id;sensor_type;location;lat;lon;timestamp;P1;durP1;ratioP1;P2;durP2;ratioP2
42414;SDS011;28058;46.344;17.786;2023-05-14T04:38:00;26.20;;;21.65;;
42414;SDS011;28058;46.344;17.786;2023-05-14T04:40:27;30.50;;;24.95;;
42414;SDS011;28058;46.344;17.786;2023-05-14T04:42:54;31.60;;;25.42;;
42414;SDS011;28058;46.344;17.786;2023-05-14T04:45:20;32.00;;;24.00;;
42414;SDS011;28058;46.344;17.786;2023-05-14T06:08:38;28.90;;;24.25;;
42414;SDS011;28058;46.344;17.786;2023-05-14T07:12:15;28.27;;;24.95;;
42414;SDS011;28058;46.344;17.786;2023-05-14T07:14:41;32.80;;;25.77;;
42414;SDS011;28058;46.344;17.786;2023-05-14T07:17:08;30.80;;;26.67;;
42414;SDS011;28058;46.344;17.786;2023-05-14T07:19:35;30.60;;;25.95;;
42414;SDS011;28058;46.344;17.786;2023-05-14T07:22:02;31.38;;;26.67;;
42414;SDS011;28058;46.344;17.786;2023-05-14T07:24:29;37.20;;;29.65;;
42414;SDS011;28058;46.344;17.786;2023-05-14T07:26:55;32.05;;;27.98;;
42414;SDS011;28058;46.344;17.786;2023-05-14T07:29:22;34.42;;;27.83;;
42414;SDS011;28058;46.344;17.786;2023-05-14T07:31:50;37.40;;;28.30;;
42414;SDS011;28058;46.344;17.786;2023-05-14T07:34:17;33.95;;;29.20;;
42414;SDS011;28058;46.344;17.786;2023-05-14T07:36:44;35.53;;;28.15;;
42414;SDS011;28058;46.344;17.786;2023-05-14T07:39:12;35.63;;;29.42;;
42414;SDS011;28058;46.344;17.786;2023-05-14T07:41:39;37.05;;;30.52;;
42414;SDS011;28058;46.344;17.786;2023-05-14T07:44:05;37.03;;;30.88;;
42414;SDS011;28058;46.344;17.786;2023-05-14T07:46:32;36.88;;;32.17;;
42414;SDS011;28058;46.344;17.786;2023-05-14T07:48:59;35.83;;;30.45;;
42414;SDS011;28058;46.344;17.786;2023-05-14T07:51:26;39.38;;;31.80;;
42414;SDS011;28058;46.344;17.786;2023-05-14T07:53:54;34.45;;;29.70;;
42414;SDS011;28058;46.344;17.786;2023-05-14T07:56:23;37.80;;;31.17;;
42414;SDS011;28058;46.344;17.786;2023-05-14T07:58:50;39.65;;;33.25;;
42414;SDS011;28058;46.344;17.786;2023-05-14T08:01:17;38.78;;;32.03;;
42414;SDS011;28058;46.344;17.786;2023-05-14T08:03:44;40.63;;;33.55;;
42414;SDS011;28058;46.344;17.786;2023-05-14T08:06:11;36.92;;;32.30;;
42414;SDS011;28058;46.344;17.786;2023-05-14T08:08:38;37.28;;;32.00;;
42414;SDS011;28058;46.344;17.786;2023-05-14T08:11:05;40.08;;;33.20;;
42414;SDS011;28058;46.344;17.786;2023-05-14T08:13:31;39.45;;;33.92;;
42414;SDS011;28058;46.344;17.786;2023-05-14T08:15:58;33.80;;;29.88;;
42414;SDS011;28058;46.344;17.786;2023-05-14T08:18:25;39.75;;;32.95;;
42414;SDS011;28058;46.344;17.786;2023-05-14T08:20:52;51.25;;;43.20;;
42414;SDS011;28058;46.344;17.786;2023-05-14T08:23:19;95.05;;;70.40;;
42414;SDS011;28058;46.344;17.786;2023-05-14T08:25:46;89.50;;;71.93;;
42414;SDS011;28058;46.344;17.786;2023-05-14T08:28:12;62.05;;;48.83;;
42414;SDS011;28058;46.344;17.786;2023-05-14T08:30:39;114.90;;;79.45;;
42414;SDS011;28058;46.344;17.786;2023-05-14T08:33:06;99.93;;;67.18;;
42414;SDS011;28058;46.344;17.786;2023-05-14T08:35:33;96.10;;;80.05;;
42414;SDS011;28058;46.344;17.786;2023-05-14T08:38:00;120.00;;;94.45;;
42414;SDS011;28058;46.344;17.786;2023-05-14T08:40:27;50.05;;;44.35;;
42414;SDS011;28058;46.344;17.786;2023-05-14T08:42:53;39.53;;;32.72;;
42414;SDS011;28058;46.344;17.786;2023-05-14T08:45:28;34.55;;;30.63;;
42414;SDS011;28058;46.344;17.786;2023-05-14T08:47:55;35.67;;;31.65;;
42414;SDS011;28058;46.344;17.786;2023-05-14T08:50:23;36.90;;;31.40;;
42414;SDS011;28058;46.344;17.786;2023-05-14T08:52:51;34.90;;;29.95;;
42414;SDS011;28058;46.344;17.786;2023-05-14T08:55:18;32.15;;;28.75;;
42414;SDS011;28058;46.344;17.786;2023-05-14T08:57:45;32.63;;;28.05;;
42414;SDS011;28058;46.344;17.786;2023-05-14T09:00:12;28.70;;;25.58;;
42414;SDS011;28058;46.344;17.786;2023-05-14T09:02:39;31.15;;;26.90;;
42414;SDS011;28058;46.344;17.786;2023-05-14T09:05:07;31.75;;;27.80;;
42414;SDS011;28058;46.344;17.786;2023-05-14T09:07:37;30.27;;;25.57;;
42414;SDS011;28058;46.344;17.786;2023-05-14T09:10:05;29.77;;;25.38;;
42414;SDS011;28058;46.344;17.786;2023-05-14T09:12:32;28.27;;;25.17;;
42414;SDS011;28058;46.344;17.786;2023-05-14T09:14:59;24.60;;;21.70;;
42414;SDS011;28058;46.344;17.786;2023-05-14T09:17:25;23.40;;;20.92;;
42414;SDS011;28058;46.344;17.786;2023-05-14T09:19:53;24.55;;;20.85;;
42414;SDS011;28058;46.344;17.786;2023-05-14T09:22:20;22.02;;;19.73;;
42414;SDS011;28058;46.344;17.786;2023-05-14T09:25:00;24.73;;;20.42;;
42414;SDS011;28058;46.344;17.786;2023-05-14T09:27:28;20.90;;;18.67;;
42414;SDS011;28058;46.344;17.786;2023-05-14T09:29:55;18.65;;;16.73;;
42414;SDS011;28058;46.344;17.786;2023-05-14T09:32:21;17.67;;;15.93;;
42414;SDS011;28058;46.344;17.786;2023-05-14T09:34:48;19.98;;;17.90;;
42414;SDS011;28058;46.344;17.786;2023-05-14T09:37:15;18.80;;;16.80;;
42414;SDS011;28058;46.344;17.786;2023-05-14T09:39:42;17.38;;;15.57;;
42414;SDS011;28058;46.344;17.786;2023-05-14T09:42:08;17.40;;;15.65;;
42414;SDS011;28058;46.344;17.786;2023-05-14T09:44:36;12.93;;;11.63;;
42414;SDS011;28058;46.344;17.786;2023-05-14T09:47:03;15.82;;;13.50;;
42414;SDS011;28058;46.344;17.786;2023-05-14T09:49:30;14.57;;;12.93;;
42414;SDS011;28058;46.344;17.786;2023-05-14T09:51:57;14.68;;;13.20;;
42414;SDS011;28058;46.344;17.786;2023-05-14T09:54:24;16.38;;;14.68;;
42414;SDS011;28058;46.344;17.786;2023-05-14T09:56:51;16.60;;;14.82;;
42414;SDS011;28058;46.344;17.786;2023-05-14T09:59:21;16.70;;;15.05;;
42414;SDS011;28058;46.344;17.786;2023-05-14T10:01:47;17.17;;;14.98;;
42414;SDS011;28058;46.344;17.786;2023-05-14T10:04:15;17.48;;;15.48;;
42414;SDS011;28058;46.344;17.786;2023-05-14T10:06:42;18.70;;;16.48;;
42414;SDS011;28058;46.344;17.786;2023-05-14T10:09:11;16.73;;;14.85;;
42414;SDS011;28058;46.344;17.786;2023-05-14T10:11:41;17.20;;;15.50;;
42414;SDS011;28058;46.344;17.786;2023-05-14T10:14:19;18.33;;;16.42;;
42414;SDS011;28058;46.344;17.786;2023-05-14T10:16:47;17.42;;;15.63;;
42414;SDS011;28058;46.344;17.786;2023-05-14T10:19:16;17.52;;;15.48;;
42414;SDS011;28058;46.344;17.786;2023-05-14T10:21:44;22.15;;;17.45;;
42414;SDS011;28058;46.344;17.786;2023-05-14T10:24:11;19.92;;;16.60;;
42414;SDS011;28058;46.344;17.786;2023-05-14T10:26:38;29.13;;;20.88;;
42414;SDS011;28058;46.344;17.786;2023-05-14T10:29:06;20.05;;;16.95;;
42414;SDS011;28058;46.344;17.786;2023-05-14T10:31:51;19.85;;;16.83;;
42414;SDS011;28058;46.344;17.786;2023-05-14T10:37:00;19.35;;;17.25;;
42414;SDS011;28058;46.344;17.786;2023-05-14T10:42:15;18.95;;;16.98;;
42414;SDS011;28058;46.344;17.786;2023-05-14T10:47:15;20.70;;;17.92;;
42414;SDS011;28058;46.344;17.786;2023-05-14T10:49:45;18.85;;;16.85;;
42414;SDS011;28058;46.344;17.786;2023-05-14T10:52:17;20.02;;;16.95;;
42414;SDS011;28058;46.344;17.786;2023-05-14T10:54:48;25.83;;;20.80;;
42414;SDS011;28058;46.344;17.786;2023-05-14T10:57:16;31.05;;;22.80;;
42414;SDS011;28058;46.344;17.786;2023-05-14T10:59:43;31.05;;;20.90;;
42414;SDS011;28058;46.344;17.786;2023-05-14T11:02:20;27.88;;;21.52;;
42414;SDS011;28058;46.344;17.786;2023-05-14T11:07:28;31.35;;;23.17;;
42414;SDS011;28058;46.344;17.786;2023-05-14T11:09:59;28.37;;;20.57;;
42414;SDS011;28058;46.344;17.786;2023-05-14T11:12:26;25.50;;;20.05;;
42414;SDS011;28058;46.344;17.786;2023-05-14T11:14:55;19.27;;;17.20;;
42414;SDS011;28058;46.344;17.786;2023-05-14T11:17:23;20.40;;;18.00;;
42414;SDS011;28058;46.344;17.786;2023-05-14T11:19:50;19.80;;;17.45;;
42414;SDS011;28058;46.344;17.786;2023-05-14T11:22:17;21.27;;;17.65;;
42414;SDS011;28058;46.344;17.786;2023-05-14T11:24:43;19.30;;;17.17;;
42414;SDS011;28058;46.344;17.786;2023-05-14T11:27:10;22.05;;;18.33;;
42414;SDS011;28058;46.344;17.786;2023-05-14T11:29:37;24.85;;;20.50;;
42414;SDS011;28058;46.344;17.786;2023-05-14T11:32:04;24.45;;;20.67;;
42414;SDS011;28058;46.344;17.786;2023-05-14T11:34:32;30.10;;;25.08;;
42414;SDS011;28058;46.344;17.786;2023-05-14T11:37:03;33.10;;;25.20;;
42414;SDS011;28058;46.344;17.786;2023-05-14T11:39:30;25.25;;;21.92;;
42414;SDS011;28058;46.344;17.786;2023-05-14T11:41:59;27.75;;;22.27;;
42414;SDS011;28058;46.344;17.786;2023-05-14T11:44:27;26.90;;;22.63;;
42414;SDS011;28058;46.344;17.786;2023-05-14T11:46:55;31.73;;;23.30;;
42414;SDS011;28058;46.344;17.786;2023-05-14T11:49:22;26.52;;;21.77;;
42414;SDS011;28058;46.344;17.786;2023-05-14T11:51:50;34.67;;;26.85;;
42414;SDS011;28058;46.344;17.786;2023-05-14T11:54:23;38.50;;;28.20;;
42414;SDS011;28058;46.344;17.786;2023-05-14T11:56:50;39.60;;;29.48;;
42414;SDS011;28058;46.344;17.786;2023-05-14T11:59:18;28.95;;;23.05;;
42414;SDS011;28058;46.344;17.786;2023-05-14T12:01:45;25.48;;;22.17;;
42414;SDS011;28058;46.344;17.786;2023-05-14T12:04:15;22.50;;;18.63;;
42414;SDS011;28058;46.344;17.786;2023-05-14T12:06:44;21.75;;;18.98;;
42414;SDS011;28058;46.344;17.786;2023-05-14T12:09:12;29.52;;;26.38;;
42414;SDS011;28058;46.344;17.786;2023-05-14T12:11:42;35.17;;;31.52;;
42414;SDS011;28058;46.344;17.786;2023-05-14T12:14:09;22.77;;;20.33;;
42414;SDS011;28058;46.344;17.786;2023-05-14T12:16:38;23.13;;;19.70;;
42414;SDS011;28058;46.344;17.786;2023-05-14T12:19:05;23.60;;;18.15;;
42414;SDS011;28058;46.344;17.786;2023-05-14T12:21:33;25.05;;;20.13;;
42414;SDS011;28058;46.344;17.786;2023-05-14T12:24:00;24.48;;;20.92;;
42414;SDS011;28058;46.344;17.786;2023-05-14T12:26:30;21.38;;;19.13;;
42414;SDS011;28058;46.344;17.786;2023-05-14T12:29:01;21.23;;;18.98;;
42414;SDS011;28058;46.344;17.786;2023-05-14T12:31:28;26.17;;;22.77;;
42414;SDS011;28058;46.344;17.786;2023-05-14T12:33:56;31.08;;;23.30;;
42414;SDS011;28058;46.344;17.786;2023-05-14T12:36:22;25.50;;;21.88;;
42414;SDS011;28058;46.344;17.786;2023-05-14T13:54:41;61.20;;;44.45;;
42414;SDS011;28058;46.344;17.786;2023-05-14T13:57:08;33.63;;;26.75;;
42414;SDS011;28058;46.344;17.786;2023-05-14T13:59:35;25.58;;;21.33;;
42414;SDS011;28058;46.344;17.786;2023-05-14T14:02:01;19.95;;;17.08;;
42414;SDS011;28058;46.344;17.786;2023-05-14T14:04:28;21.90;;;17.15;;
42414;SDS011;28058;46.344;17.786;2023-05-14T14:06:56;19.42;;;16.48;;
42414;SDS011;28058;46.344;17.786;2023-05-14T14:09:23;18.88;;;16.52;;
42414;SDS011;28058;46.344;17.786;2023-05-14T14:11:50;23.25;;;19.02;;
42414;SDS011;28058;46.344;17.786;2023-05-14T14:14:17;51.75;;;36.40;;
42414;SDS011;28058;46.344;17.786;2023-05-14T14:16:46;83.90;;;68.80;;
42414;SDS011;28058;46.344;17.786;2023-05-14T14:19:13;39.13;;;34.35;;
42414;SDS011;28058;46.344;17.786;2023-05-14T14:21:43;35.97;;;28.20;;
42414;SDS011;28058;46.344;17.786;2023-05-14T14:24:09;33.00;;;27.00;;
42414;SDS011;28058;46.344;17.786;2023-05-14T14:26:36;42.25;;;34.30;;
42414;SDS011;28058;46.344;17.786;2023-05-14T14:29:03;50.80;;;40.05;;
42414;SDS011;28058;46.344;17.786;2023-05-14T14:31:30;36.00;;;29.30;;
42414;SDS011;28058;46.344;17.786;2023-05-14T14:33:56;33.58;;;27.02;;
42414;SDS011;28058;46.344;17.786;2023-05-14T14:36:23;38.35;;;30.60;;
42414;SDS011;28058;46.344;17.786;2023-05-14T14:38:50;42.80;;;33.78;;
